Latest Weather Observations for Burnie Port

IDT60801

Issued at 7:32 pm EDT Thursday 19 January 2017 (issued every 30 minutes, with the page automatically refreshed every 10 minutes)

About weather observations | Map of weather stations | Latest weather observations for TAS | Other Formats
Station Details ID: 091344 Name: BURNIE NTC AWS Lat: -41.05 Lon: 145.91 Height: 0.0 m
Data from the previous 72 hours. | See also: Recent months for locations in Tasmania
Date/Time
EDT
Temp
°C
App
Temp
°C
Dew
Point
°C
Rel
Hum
%
Delta-T
°C
Wind Press
QNH
hPa
Press
MSL
hPa
Rain since
9am
mm
Dir  Spd
km/h
Gust
km/h
Spd
kts
Gust
kts
19/07:00pm - - - - - E 17 20 9 11 1010.7 1010.7 -
19/06:30pm - - - - - ESE 15 20 8 11 1011.1 1011.1 -
19/06:00pm - - - - - E 19 22 10 12 1011.1 1011.1 -
19/05:30pm - - - - - E 20 24 11 13 1011.4 1011.4 -
19/05:00pm - - - - - E 17 24 9 13 1012.2 1012.2 -
19/04:30pm - - - - - E 20 26 11 14 1012.0 1012.0 -
19/04:00pm - - - - - E 20 24 11 13 1012.3 1012.3 -
19/03:30pm - - - - - E 20 28 11 15 1013.0 1013.0 -
19/03:00pm - - - - - E 17 22 9 12 1013.5 1013.5 -
19/02:30pm - - - - - E 19 20 10 11 1013.8 1013.8 -
19/02:00pm - - - - - E 17 22 9 12 1014.4 1014.4 -
19/01:30pm - - - - - E 17 22 9 12 1014.6 1014.6 -
19/01:00pm - - - - - E 20 26 11 14 1014.8 1014.8 -
19/12:30pm - - - - - E 22 26 12 14 1015.2 1015.2 -
19/12:00pm - - - - - E 24 30 13 16 1015.4 1015.4 -
19/11:30am - - - - - ESE 24 28 13 15 1015.5 1015.5 -
19/11:00am - - - - - ESE 24 30 13 16 1015.8 1015.8 -
19/10:30am - - - - - ESE 22 28 12 15 1016.1 1016.1 -
19/10:00am - - - - - ESE 24 32 13 17 1015.9 1015.9 -
19/09:30am - - - - - SE 17 24 9 13 1016.0 1016.0 -
19/09:00am - - - - - SSE 17 20 9 11 1016.0 1016.0 -
19/08:30am - - - - - S 13 17 7 9 1016.2 1016.2 -
19/08:00am - - - - - S 15 19 8 10 1016.3 1016.3 -
19/07:30am - - - - - S 17 20 9 11 1016.1 1016.1 -
19/07:00am - - - - - SSE 11 19 6 10 1015.8 1015.8 -
19/06:30am - - - - - S 24 30 13 16 1015.5 1015.5 -
19/06:00am - - - - - S 22 28 12 15 1015.4 1015.4 -
19/05:30am - - - - - S 19 22 10 12 1015.4 1015.4 -
19/05:00am - - - - - S 19 22 10 12 1015.1 1015.1 -
19/04:30am - - - - - S 19 22 10 12 1014.9 1014.9 -
19/04:00am - - - - - SSW 11 15 6 8 1015.2 1015.2 -
19/03:30am - - - - - SSW 13 17 7 9 1015.3 1015.3 -
19/03:00am - - - - - S 13 17 7 9 1015.4 1015.4 -
19/02:30am - - - - - SSW 9 15 5 8 1015.5 1015.5 -
19/02:00am - - - - - SE 11 17 6 9 1015.7 1015.7 -
19/01:30am - - - - - SSW 15 22 8 12 1015.8 1015.8 -
19/01:00am - - - - - SSW 20 28 11 15 1015.5 1015.5 -
19/12:30am - - - - - SSW 24 32 13 17 1015.5 1015.5 -
19/12:00am - - - - - SSW 20 28 11 15 1015.4 1015.4 -
 
Date/Time
EDT
Temp
°C
App
Temp
°C
Dew
Point
°C
Rel
Hum
%
Delta-T
°C
Wind Press
QNH
hPa
Press
MSL
hPa
Rain since
9am
mm
Dir  Spd
km/h
Gust
km/h
Spd
kts
Gust
kts
18/11:30pm - - - - - SSW 28 37 15 20 1015.2 1015.2 -
18/11:00pm - - - - - SSW 32 41 17 22 1015.2 1015.2 -
18/10:30pm - - - - - SSW 26 39 14 21 1015.3 1015.3 -
18/10:00pm - - - - - SSW 30 43 16 23 1015.2 1015.2 -
18/09:30pm - - - - - SW 30 41 16 22 1015.2 1015.2 -
18/09:03pm - - - - - SW 30 50 16 27 1014.9 1014.9 -
18/09:00pm - - - - - SW 28 41 15 22 1014.9 1014.9 -
18/08:30pm - - - - - SW 22 35 12 19 1014.7 1014.7 -
18/08:00pm - - - - - SW 24 35 13 19 1014.5 1014.5 -
18/07:30pm - - - - - SW 19 28 10 15 1014.1 1014.1 -
18/07:00pm - - - - - SW 22 35 12 19 1013.8 1013.8 -
18/06:30pm - - - - - WSW 22 35 12 19 1013.3 1013.3 -
18/06:00pm - - - - - WSW 20 37 11 20 1013.1 1013.1 -
18/05:30pm - - - - - SW 22 41 12 22 1012.8 1012.8 -
18/05:00pm - - - - - SSW 28 43 15 23 1012.9 1012.9 -
18/04:30pm - - - - - WSW 26 46 14 25 1012.6 1012.6 -
18/04:00pm - - - - - SW 24 50 13 27 1012.4 1012.4 -
18/03:30pm - - - - - WSW 24 44 13 24 1012.3 1012.3 -
18/03:00pm - - - - - SSW 24 46 13 25 1012.3 1012.3 -
18/02:42pm - - - - - SW 22 48 12 26 1012.1 1012.1 -
18/02:30pm - - - - - SSW 22 37 12 20 1011.9 1011.9 -
18/02:19pm - - - - - SSW 30 48 16 26 1012.0 1012.0 -
18/02:11pm - - - - - SSW 28 48 15 26 1011.7 1011.7 -
18/02:00pm - - - - - WSW 24 50 13 27 1011.7 1011.7 -
18/01:30pm - - - - - SW 20 41 11 22 1011.6 1011.6 -
18/01:00pm - - - - - WSW 28 54 15 29 1011.2 1011.2 -
18/12:59pm - - - - - WSW 28 54 15 29 1011.3 1011.3 -
18/12:30pm - - - - - SW 24 44 13 24 1011.0 1011.0 -
18/12:00pm - - - - - SW 22 50 12 27 1011.0 1011.0 -
18/11:48am - - - - - WSW 28 52 15 28 1010.7 1010.7 -
18/11:30am - - - - - SW 22 41 12 22 1010.4 1010.4 -
18/11:00am - - - - - SW 17 44 9 24 1009.9 1009.9 -
18/10:30am - - - - - SW 20 39 11 21 1009.6 1009.6 -
18/10:00am - - - - - WSW 20 46 11 25 1009.3 1009.3 -
18/09:47am - - - - - SW 28 48 15 26 1009.2 1009.2 -
18/09:30am - - - - - SW 17 39 9 21 1008.9 1008.9 -
18/09:00am - - - - - WSW 19 46 10 25 1008.5 1008.5 -
18/08:30am - - - - - WSW 24 39 13 21 1008.2 1008.2 -
18/08:18am - - - - - WSW 28 46 15 25 1008.1 1008.1 -
18/08:00am - - - - - WSW 24 54 13 29 1008.1 1008.1 -
18/07:30am - - - - - WSW 19 39 10 21 1007.5 1007.5 -
18/07:00am - - - - - WSW 13 28 7 15 1007.0 1007.0 -
18/06:30am - - - - - W 19 37 10 20 1006.3 1006.3 -
18/06:00am - - - - - W 13 28 7 15 1005.8 1005.8 -
18/05:30am - - - - - WNW 15 22 8 12 1005.3 1005.3 -
18/05:00am - - - - - WNW 15 24 8 13 1005.1 1005.1 -
18/04:30am - - - - - WNW 13 22 7 12 1005.2 1005.2 -
18/04:00am - - - - - W 15 26 8 14 1005.3 1005.3 -
18/03:30am - - - - - WSW 15 28 8 15 1004.9 1004.9 -
18/03:00am - - - - - WSW 19 32 10 17 1005.0 1005.0 -
18/02:30am - - - - - WSW 22 41 12 22 1005.1 1005.1 -
18/02:00am - - - - - WSW 13 26 7 14 1004.7 1004.7 -
18/01:30am - - - - - W 15 28 8 15 1004.9 1004.9 -
18/01:00am - - - - - W 13 20 7 11 1004.7 1004.7 -
18/12:30am - - - - - WNW 13 20 7 11 1005.0 1005.0 -
18/12:00am - - - - - W 15 24 8 13 1005.1 1005.1 -
 
Date/Time
EDT
Temp
°C
App
Temp
°C
Dew
Point
°C
Rel
Hum
%
Delta-T
°C
Wind Press
QNH
hPa
Press
MSL
hPa
Rain since
9am
mm
Dir  Spd
km/h
Gust
km/h
Spd
kts
Gust
kts
17/11:30pm - - - - - WNW 13 20 7 11 1005.1 1005.1 -
17/11:00pm - - - - - W 13 22 7 12 1005.5 1005.5 -
17/10:30pm - - - - - W 11 19 6 10 1005.5 1005.5 -
17/10:00pm - - - - - NW 19 26 10 14 1005.6 1005.6 -
17/09:30pm - - - - - WNW 17 24 9 13 1005.2 1005.2 -
17/09:00pm - - - - - NW 20 26 11 14 1004.3 1004.3 -
17/08:30pm - - - - - WNW 13 20 7 11 1004.7 1004.7 -
17/08:00pm - - - - - WNW 13 20 7 11 1004.2 1004.2 -
17/07:30pm - - - - - NW 17 20 9 11 1003.9 1003.9 -
17/07:00pm - - - - - WNW 19 28 10 15 1003.8 1003.8 -
17/06:30pm - - - - - WNW 15 24 8 13 1003.4 1003.4 -
17/06:00pm - - - - - NW 20 26 11 14 1003.3 1003.3 -
17/05:30pm - - - - - NW 24 32 13 17 1003.9 1003.9 -
17/05:00pm - - - - - NW 26 35 14 19 1003.9 1003.9 -
17/04:30pm - - - - - NW 22 26 12 14 1004.1 1004.1 -
17/04:00pm - - - - - NW 26 33 14 18 1004.1 1004.1 -
17/03:30pm - - - - - NW 20 28 11 15 1004.0 1004.0 -
17/03:00pm - - - - - NW 22 28 12 15 1004.4 1004.4 -
17/02:30pm - - - - - NW 22 30 12 16 1004.7 1004.7 -
17/02:00pm - - - - - NW 20 26 11 14 1004.9 1004.9 -
17/01:30pm - - - - - NW 15 20 8 11 1005.5 1005.5 -
17/01:00pm - - - - - NW 11 13 6 7 1005.6 1005.6 -
17/12:30pm - - - - - NNW 15 17 8 9 1006.1 1006.1 -
17/12:00pm - - - - - NNW 9 9 5 5 1005.9 1005.9 -
17/11:30am - - - - - N 6 7 3 4 1006.2 1006.2 -
17/11:00am - - - - - NNW 6 9 3 5 1006.8 1006.8 -
17/10:30am - - - - - N 7 11 4 6 1007.2 1007.2 -
17/10:00am - - - - - NNW 6 6 3 3 1006.8 1006.8 -
17/09:30am - - - - - N 4 6 2 3 1006.8 1006.8 -
17/09:00am - - - - - SE 7 9 4 5 1006.9 1006.9 -
17/08:30am - - - - - SE 4 6 2 3 1007.0 1007.0 -
17/08:00am - - - - - S 6 7 3 4 1007.2 1007.2 -
17/07:30am - - - - - SSW 7 9 4 5 1007.6 1007.6 -
17/07:00am - - - - - SSW 13 15 7 8 1007.3 1007.3 -

Other Formats:

Comma delimited format used in spreadsheet applications
http://www.bom.gov.au/fwo/IDT60801/IDT60801.95963.axf

JavaScript Object Notation format (JSON) in row-major order
http://www.bom.gov.au/fwo/IDT60801/IDT60801.95963.json